首页
METAR-TAF:

METAR-TAF

机场 :

西雅圖-塔科馬國際機場

西雅圖 / 塔科马, 华盛顿, 美国

纬度: 47-26-41N, 经度: 122-18-49W, 海拔: 130米

当前天气观测

该预报发布于30分钟前的22:53 UTC
风速6节,风向西转西北
温度 21°C
湿度 56%
气压 1022 hPa
能見度: 16.1公里
散云层高于3000英尺
多云层高于3900英尺

METAR: KSEA 232253Z 29006KT 10SM SCT030 BKN039 21/12 A3019 RMK AO2 SLP228 T02110117

时间: 16:23 (23:23 UTC)

预报

该预报发布于2小时和22分钟前的21:01 UTC
预报有效从23日的 21点(UTC)到 24日的 24点(UTC)
风速6节,风向西转西南
能見度: 10公里
多云层高于2200英尺
从 23日的 2300点(UTC)
风速4节,风向
能見度: 10公里
散云层高于4000英尺
从 24日的 1200点(UTC)
风速3节,风向多变
能見度: 10公里
散云层高于1000英尺

TAF: KSEA 232101Z 2321/2424 25006KT P6SM BKN022 FM232300 35004KT P6SM SCT040 FM241200 VRB03KT P6SM SCT010

超过4000个机场的气象观测和天气预报(METAR&TAF报告)。

可查询的气象台以黄色和红色小点在地图上表示。

将鼠标移到小点上方,可查看气象台名称。

然后点击查看天气观测和预报。

如需切换地图:点击带黑十字的绿色按钮放大地图;点击带横线的绿色按钮缩小地图;或者点击绿色箭头查看邻近地区的地图。


METAR-TAF: